Tiempo atmosférico en la estación meteorológica de Roquetas de Mar, Almería (7 m.)



Fecha
DESCASC
Temp. máxima en grados centígrados (hora)
DESCASC
Temp. mínima en grados centígrados (hora)
DESCASC
Temp. media en grados centígrados
DESCASC
Racha de viento máxima en m/sg (hora)
DESCASC
Velocidad máxima media en intervalos de 10 minutos(hora)
DESCASC
Precipitaciones diarias en mm
DESCASC
Precipitaciones de 00:00 a 06:00 en mm
DESCASC
Precipitaciones de 06:00 a 12:00 en mm
DESCASC
Precipitaciones de 12:00 a 18:00 en mm
DESCASC
Precipitaciones de 18:00 a 24:00 en mm
DESCASC
23-06-2019 24.9 (17:10) 19 (04:20) 21.9 6.11 (05:40) 3.61 (05:40) 0 0 0 0 0
22-06-2019 25.2 (16:10) 18.2 (05:50) 21.7 7.5 (09:30) 4.72 (09:30) 0 0 0 0 0
21-06-2019 23.4 (19:30) 16.2 (07:10) 19.8 13.06 (00:30) 7.5 (00:50) 0 0 0 0 0
20-06-2019 24.1 (19:40) 16.2 (00:00) 20.2 18.61 (19:50) 11.94 (19:00) 0 0 0 0 0
19-06-2019 24.2 (16:40) 16.3 (00:00) 20.3 11.67 (18:10) 7.22 (18:10) 0 0 0 0 0
18-06-2019 23.9 (17:20) 15.5 (00:00) 19.7 11.39 (18:30) 7.5 (18:50) 0 0 0 0 0
17-06-2019 24.1 (17:00) 16.7 (00:00) 20.4 6.94 (16:40) 4.72 (15:30) 0 0 0 0 0
16-06-2019 24.9 (15:40) 12.7 (00:00) 18.8 10 (11:40) 6.39 (12:10) 0 0 0 0 0
15-06-2019 23.2 (17:50) 16.7 (00:00) 20 14.72 (02:40) 9.17 (02:50) 0 0 0 0 0
14-06-2019 22 (16:00) 18.3 (00:00) 20.1 20.83 (12:30) 13.61 (12:20) 0.4 0.4 0 0 0
13-06-2019 24.3 (14:20) 16.7 (00:00) 20.5 8.89 (01:10) 5.28 (02:40) 0 0 0 0 0
12-06-2019 23.7 (11:10) 18.4 (00:00) 21.1 17.22 (03:20) 10 (02:50) 0 0 0 0 0
11-06-2019 22 (12:40) 14.6 (00:00) 18.3 16.11 (17:30) 11.67 (17:30) 0 0 0 0 0
10-06-2019 22.9 (13:00) 15.5 (00:00) 19.2 16.11 (14:20) 10.28 (15:00) 0 0 0 0 0
09-06-2019 24.1 (13:40) 18.7 (00:00) 21.4 14.17 (17:30) 10 (17:30) 0 0 0 0 0
08-06-2019 23.8 (13:40) 14.6 (00:00) 19.2 15.28 (15:30) 8.89 (15:10) 0 0 0 0 0
07-06-2019 23.4 (14:40) 15.7 (00:00) 19.5 14.44 (02:30) 8.06 (01:20) 0 0 0 0 0
06-06-2019 23.5 (16:10) 14.6 (00:00) 19.1 12.78 (22:30) 8.89 (22:20) 0 0 0 0 0
05-06-2019 23.2 (16:30) 18.8 (00:00) 21 20.83 (15:50) 13.06 (15:10) 0 0 0 0 0
04-06-2019 24 (14:00) 12.9 (00:00) 18.4 11.11 (15:00) 6.67 (23:20) 0 0 0 0 0
03-06-2019 23.3 (20:40) 13.3 (00:00) 18.3 5.56 (13:40) 3.33 (14:10) 0 0 0 0 0
02-06-2019 24.4 (17:50) 12.2 (00:00) 18.3 10.56 (01:00) 7.22 (01:00) 0 0 0 0 0
01-06-2019 25.5 (11:50) 16.1 (00:00) 20.8 15.28 (17:00) 9.17 (16:50) 0 0 0 0 0
31-05-2019 25.7 (15:30) 18.5 (00:00) 22.1 17.22 (19:00) 10.56 (12:50) 0 0 0 0 0
30-05-2019 23.9 (12:10) 18.1 (00:00) 21 16.67 (14:40) 10.28 (14:50) 0 0 0 0 0
29-05-2019 24.1 (11:30) 19 (00:00) 21.6 14.44 (14:50) 8.61 (12:00) 0 0 0 0 0
28-05-2019 24.1 (14:20) 14.5 (00:00) 19.3 7.78 (14:00) 4.44 (10:00) 0 0 0 0 0
27-05-2019 24.2 (16:20) 13.6 (00:00) 18.9 7.22 (16:30) 4.72 (13:00) 0 0 0 0 0
26-05-2019 23.4 (17:30) 14.2 (00:00) 18.8 8.61 (16:10) 4.72 (16:10) 0 0 0 0 0
25-05-2019 21.9 (17:00) 17.2 (00:00) 19.6 13.89 (00:20) 8.33 (01:00) 0 0 0 0 0

Gráficas

Temp. máximas Temp. mínimas Temp. medias Precipitaciones Rachas de viento máximas Velocidades máximas media en intervalos de 10 minutos

Datos horarios

Fecha y hora oficial Temperatura (ºC) Velocidad del viento (km/h) Dirección del viento Racha (km/h) Dirección de racha Precipitación (mm) Presión (hPa) Tendencia (hPa) Humedad (%)
2019-06-23 23:00:00 21.5 5 Oeste 8 Oeste 0 1013.5 1.4 77
2019-06-23 22:00:00 22.2 5 Oeste 8 Oeste 0 1012.7 0.6 77
2019-06-23 21:00:00 22.7 5 Sur 13 Sudoeste 0 1012.5 0 74
2019-06-23 20:00:00 23.4 7 Sudoeste 13 Sudoeste 0 1012.1 -0.6 71
2019-06-23 19:00:00 24.1 7 Sur 15 Sur 0 1012.1 -1 68
2019-06-23 18:00:00 24.3 8 Sur 18 Sur 0 1012.5 -1.1 67
2019-06-23 17:00:00 24.6 10 Sur 18 Sudoeste 0 1012.7 -1.3 65
2019-06-23 16:00:00 24.1 12 Sudoeste 19 Sudoeste 0 1013.1 -1.2 69
2019-06-23 15:00:00 23.9 10 Sudoeste 19 Sudoeste 0 1013.6 -0.8 70
2019-06-23 14:00:00 23.8 10 Sur 18 Sudoeste 0 1014 -0.3 69
2019-06-23 13:00:00 23.9 11 Sudoeste 19 Sudoeste 0 1014.3 0.2 70
2019-06-23 12:00:00 24.5 10 Oeste 19 Sudoeste 0 1014.4 0.6 67
2019-06-23 11:00:00 23.6 10 Oeste 17 Oeste 0 1014.3 0.6 70
2019-06-23 10:00:00 22.3 7 Oeste 14 Oeste 0 1014.1 0.5 82
2019-06-23 09:00:00 20.7 6 Oeste 11 Noroeste 0 1013.8 0.3 89
2019-06-23 08:00:00 20 7 Noroeste 13 Oeste 0 1013.7 0.3 90
2019-06-23 07:00:00 19.1 10 Oeste 16 Oeste 0 1013.6 0 90
2019-06-23 06:00:00 19.8 10 Oeste 22 Oeste 0 1013.5 -0.4 89
2019-06-23 05:00:00 19.5 10 Oeste 14 Oeste 0 1013.4 -0.7 89
2019-06-23 04:00:00 19.1 7 Noroeste 11 Noroeste 0 1013.6 -0.6 88
2019-06-23 03:00:00 19.7 10 Oeste 15 Oeste 0 1013.9 -0.5 87
2019-06-23 02:00:00 20.2 4 Oeste 6 Oeste 0 1014.1 -0.2 85
2019-06-23 01:00:00 20.2 4 Oeste 5 Oeste 0 1014.2 0.3 84
2019-06-23 00:00:00 20.9 2 Oeste 4 Sudeste 0 1014.4 0.5 83
2019-06-22 23:00:00 21.2 0 Calma 5 Nordeste 0 1014.3 0.3 83
2019-06-22 22:00:00 21.7 2 Este 8 Sudeste 0 1013.9 0 82
2019-06-22 21:00:00 22.4 4 Sudeste 11 Sudeste 0 1013.9 -0.2 79
2019-06-22 20:00:00 23.1 7 Sudeste 17 Sudeste 0 1014 -0.3 76
2019-06-22 19:00:00 23.8 9 Sudeste 21 Sudeste 0 1013.9 -0.9 74
2019-06-22 18:00:00 24.5 12 Sudeste 25 Sudeste 0 1014.1 -1.2 68
2019-06-22 17:00:00 24.6 12 Sudeste 24 Sudeste 0 1014.3 -1.4 65
2019-06-22 16:00:00 25.1 12 Sudeste 26 Sudeste 0 1014.8 -1.1 62
2019-06-22 15:00:00 24.6 13 Sudeste 27 Sudeste 0 1015.3 -0.6 63
2019-06-22 14:00:00 24.8 12 Sudeste 22 Este 0 1015.7 0 65
2019-06-22 13:00:00 23.8 12 Sudeste 21 Sudeste 0 1015.9 -0.1 72
2019-06-22 12:00:00 23.8 9 Sudeste 21 Este 0 1015.9 0.3 72
2019-06-22 11:00:00 23.9 10 Este 27 Este 0 1015.7 0.4 68
2019-06-22 10:00:00 24.1 15 Este 27 Este 0 1016 0.9 61
2019-06-22 09:00:00 21.6 10 Este 22 Este 0 1015.6 0.8 83
2019-06-22 08:00:00 19.4 8 Este 18 Este 0 1015.3 0.4 91
2019-06-22 07:00:00 18.9 12 Sudeste 19 Sudeste 0 1015.1 0 91
2019-06-22 06:00:00 19 5 Este 10 Este 0 1014.8 -0.4 91
2019-06-22 05:00:00 19.1 6 Este 14 Este 0 1014.9 -0.4 91
2019-06-22 04:00:00 19.3 9 Este 14 Este 0 1015.1 0 90
2019-06-22 03:00:00 18.4 6 Este 9 Este 0 1015.2 0.3 89
2019-06-22 02:00:00 18.7 6 Este 9 Nordeste 0 1015.3 0.9 88
2019-06-22 01:00:00 19.4 5 Este 12 Este 0 1015.1 1.6 88
2019-06-22 00:00:00 19.6 7 Este 15 Este 0 1014.9 1.6 86
2019-06-21 23:00:00 19.9 8 Este 13 Este 0 1014.4 1.6 84
2019-06-21 22:00:00 20.4 7 Este 14 Este 0 1013.5 0.9 82
2019-06-21 21:00:00 21.4 9 Este 19 Sudeste 0 1013.3 0.6 76
2019-06-21 20:00:00 22.2 10 Este 16 Este 0 1012.8 -0.2 72
2019-06-21 19:00:00 23.3 6 Sudoeste 14 Sur 0 1012.6 -0.7 67
2019-06-21 18:00:00 22.9 6 Sudeste 14 Sudeste 0 1012.7 -0.7 69
2019-06-21 17:00:00 22.3 7 Sur 17 Sur 0 1013 -1.1 73
2019-06-21 16:00:00 22.2 10 Sudeste 17 Sudeste 0 1013.3 -0.9 73
2019-06-21 15:00:00 21.9 9 Sur 16 Sudoeste 0 1013.4 -0.9 73
2019-06-21 14:00:00 22.2 7 Sur 18 Sur 0 1014.1 -0.1 71
2019-06-21 13:00:00 21.8 10 Sudeste 19 Sudeste 0 1014.2 0.2 73
2019-06-21 12:00:00 21.5 9 Sudeste 21 Sudeste 0 1014.3 0.8 73
2019-06-21 11:00:00 22.2 15 Este 24 Este 0 1014.2 1.2 74
2019-06-21 10:00:00 21.1 10 Este 17 Este 0 1014 1.5 81
2019-06-21 09:00:00 19.4 9 Este 14 Este 0 1013.5 1.3 88
2019-06-21 08:00:00 17 2 Nordeste 5 Nordeste 0 1013 0.9 89
2019-06-21 07:00:00 16.8 3 Oeste 9 Sudoeste 0 1012.5 0.5 86
2019-06-21 06:00:00 18.2 8 Sudoeste 12 Sudoeste 0 1012.2 0 86
2019-06-21 05:00:00 18.4 6 Oeste 18 Oeste 0 1012.1 0.4 85
2019-06-21 04:00:00 18.5 6 Oeste 19 Oeste 0 1012 0.9 84
2019-06-21 03:00:00 18.8 9 Noroeste 29 Oeste 0 1012.2 1.6 83
2019-06-21 02:00:00 19.4 21 Oeste 39 Sudoeste 0 1011.7 1.3 81
2019-06-21 01:00:00 19.7 25 Sudoeste 47 Oeste 0 1011.1 1.3 78
2019-06-21 00:00:00 20.1 22 Oeste 40 Oeste 0 1010.6 1.1 74
2019-06-20 23:00:00 20.7 30 Oeste 46 Oeste 0 1010.4 0.7 73
2019-06-20 22:00:00 21.1 28 Oeste 57 Oeste 0 1009.8 0 70
2019-06-20 21:00:00 22.2 34 Oeste 60 Noroeste 0 1009.5 -0.7 63
2019-06-20 20:00:00 23.8 34 Oeste 67 Oeste 0 1009.7 -1.2 57
2019-06-20 19:00:00 23.2 43 Oeste 60 Oeste 0 1009.8 -1.9 62
2019-06-20 18:00:00 23.4 31 Oeste 57 Oeste 0 1010.2 -2.1 63
2019-06-20 17:00:00 23 27 Oeste 45 Oeste 0 1010.9 -1.9 66
2019-06-20 16:00:00 23.3 18 Oeste 38 Oeste 0 1011.7 -1 65
2019-06-20 15:00:00 23.5 17 Oeste 39 Oeste 0 1012.3 -0.2 67
2019-06-20 14:00:00 22.8 22 Oeste 39 Oeste 0 1012.8 0.4 69
2019-06-20 13:00:00 22.5 18 Oeste 42 Oeste 0 1012.7 0.2 70
2019-06-20 12:00:00 22.1 20 Oeste 38 Sudoeste 0 1012.5 0.3 73
2019-06-20 11:00:00 21.6 18 Oeste 43 Oeste 0 1012.4 0.5 75
2019-06-20 10:00:00 21.4 22 Oeste 36 Oeste 0 1012.5 1 78
2019-06-20 09:00:00 19.7 12 Oeste 21 Noroeste 0 1012.2 1.2 90
2019-06-20 08:00:00 18.6 10 Oeste 24 Oeste 0 1011.9 0.7 90
2019-06-20 07:00:00 17.4 10 Oeste 15 Oeste 0 1011.5 0.1 91
2019-06-20 06:00:00 16.9 4 Oeste 13 Noroeste 0 1011 -0.9 89
2019-06-20 05:00:00 16.6 8 Noroeste 10 Noroeste 0 1011.2 -1.1 88
2019-06-20 04:00:00 17.9 6 Oeste 10 Oeste 0 1011.4 -0.6 88
2019-06-20 03:00:00 17.9 2 Sudeste 5 Nordeste 0 1011.9 -0.2 86
2019-06-20 02:00:00 19.5 4 Sudoeste 17 Sudoeste 0 1012.3 0.8 86
2019-06-20 01:00:00 20 6 Oeste 19 Oeste 0 1012 1.1 84
2019-06-20 00:00:00 20.2 9 Oeste 21 Oeste 0 1012.1 1.3 83
2019-06-19 23:00:00 20.2 13 Oeste 28 Oeste 0 1011.5 0.6 82
2019-06-19 22:00:00 20.7 11 Oeste 26 Sudoeste 0 1010.9 -0.4 81
2019-06-19 21:00:00 21.6 15 Oeste 32 Oeste 0 1010.8 -1.1 78
2019-06-19 20:00:00 22.6 16 Oeste 38 Oeste 0 1010.9 -1.6 73
2019-06-19 19:00:00 22.8 18 Oeste 42 Oeste 0 1011.3 -2 72
2019-06-19 18:00:00 23.6 21 Oeste 37 Oeste 0 1011.9 -2.1 66
2019-06-19 17:00:00 23.8 19 Oeste 36 Sudoeste 0 1012.5 -2 66
2019-06-19 16:00:00 23.6 19 Oeste 37 Oeste 0 1013.3 -1.4 67
2019-06-19 15:00:00 23.4 18 Oeste -- -- -- 1014 -0.5 67
2019-06-19 14:00:00 22.9 22 Oeste 100 Sudoeste 0 1014.5 0.2 69
2019-06-19 13:00:00 23.4 15 Oeste 31 Oeste 0 1014.7 0.5 69
2019-06-19 12:00:00 22.8 15 Oeste 31 Oeste 0 1014.5 0.3 72
2019-06-19 11:00:00 21.5 17 Oeste 31 Oeste 0 1014.3 0.8 78
2019-06-19 10:00:00 20.3 18 Oeste 30 Oeste 0 1014.2 0.8 86
2019-06-19 09:00:00 19.5 10 Oeste 23 Oeste 0 1014.2 0.8 90
2019-06-19 08:00:00 19 17 Oeste 24 Oeste 0 1013.5 0 90
2019-06-19 07:00:00 16.7 9 Oeste 15 Oeste 0 1013.4 -0.5 89
2019-06-19 06:00:00 16.9 9 Noroeste 12 Noroeste 0 1013.4 -0.8 88
2019-06-19 05:00:00 17.7 10 Noroeste 18 Oeste 0 1013.5 -0.9 87
2019-06-19 04:00:00 18.6 9 Oeste 19 Oeste 0 1013.9 -0.5 85
2019-06-19 03:00:00 18.7 8 Oeste 15 Sudoeste 0 1014.2 0 84
2019-06-19 02:00:00 19.3 9 Oeste 19 Oeste 0 1014.4 0.6 82
2019-06-19 01:00:00 19.3 9 Oeste 19 Oeste 0 1014.4 1 79
2019-06-19 00:00:00 19.8 10 Oeste 19 Sudoeste 0 1014.2 0.8 80
2019-06-18 23:00:00 20.2 11 Oeste 24 Oeste 0 1013.8 0.4 78
2019-06-18 22:00:00 20.4 15 Oeste 22 Oeste 0 1013.4 0.1 75
2019-06-18 21:00:00 21.2 10 Oeste 25 Oeste 0 1013.4 -0.6 73
2019-06-18 20:00:00 21.8 17 Oeste 38 Oeste 0 1013.4 -1.3 73
2019-06-18 19:00:00 22.5 24 Oeste 41 Oeste 0 1013.3 -2.1 70
2019-06-18 18:00:00 22.9 20 Oeste 35 Oeste 0 1014 -1.8 67
2019-06-18 17:00:00 23.2 17 Oeste 30 Oeste 0 1014.7 -1.4 64
2019-06-18 16:00:00 23.3 15 Oeste 30 Oeste 0 1015.4 -1.1 65
2019-06-18 15:00:00 23.1 15 Oeste 27 Oeste 0 1015.8 -0.5 68
2019-06-18 14:00:00 22.2 17 Oeste 30 Oeste 0 1016.1 -0.1 71
2019-06-18 13:00:00 22.1 15 Oeste 26 Oeste 0 1016.5 0.4 73
2019-06-18 12:00:00 22 10 Oeste 22 Sudoeste 0 1016.3 0.4 76
2019-06-18 11:00:00 20.8 7 Sur 14 Sur 0 1016.2 1.1 86
2019-06-18 10:00:00 19.5 5 Sudeste 10 Sudeste 0 1016.1 1.6 90
2019-06-18 09:00:00 18.9 3 Sur 9 Sudoeste 0 1015.9 1.6 91
2019-06-18 08:00:00 16.5 0 Calma 51 Nordeste 0 1015.1 0.6 90
2019-06-18 07:00:00 15.5 6 Este 9 Nordeste 0 1014.5 -0.4 89
2019-06-18 06:00:00 15.9 8 Nordeste 9 Nordeste 0 1014.3 -1 88
2019-06-18 05:00:00 16.6 6 Este 7 Nordeste 0 1014.5 -1.1 87
2019-06-18 04:00:00 16.8 6 Este 8 Este 0 1014.9 -0.8 85
2019-06-18 03:00:00 17.3 5 Nordeste 9 Nordeste 0 1015.3 -0.5 85
2019-06-18 02:00:00 17.5 8 Nordeste 13 Nordeste 0 1015.6 0 84
2019-06-18 01:00:00 17.9 6 Norte 12 Oeste 0 1015.7 0.5 83
2019-06-18 00:00:00 19.5 9 Oeste 13 Oeste 0 1015.8 0.7 81
2019-06-17 23:00:00 19.8 8 Oeste 11 Oeste 0 1015.6 0.4 78
2019-06-17 22:00:00 21.1 8 Oeste 12 Oeste 0 1015.2 0.2 76
2019-06-17 21:00:00 22.1 9 Oeste 20 Oeste 0 1015.1 -0.3 73
2019-06-17 20:00:00 23.3 11 Oeste 21 Sudoeste 0 1015.2 -1 71
2019-06-17 19:00:00 22.9 12 Sudoeste 21 Sudoeste 0 1015 -1.8 71
2019-06-17 18:00:00 23 13 Sudoeste 22 Sudoeste 0 1015.4 -1.6 67
2019-06-17 17:00:00 24.1 13 Oeste 25 Sudoeste 0 1016.2 -1.4 63
2019-06-17 16:00:00 23.6 13 Sudoeste 25 Oeste 0 1016.8 -1.2 66
2019-06-17 15:00:00 22.6 14 Sudoeste 23 Oeste 0 1017 -1.2 67
2019-06-17 14:00:00 22.8 14 Sudoeste 23 Oeste 0 1017.6 -0.3 65
2019-06-17 13:00:00 22.3 12 Sudoeste 18 Sudoeste 0 1018 -0.3 67
2019-06-17 12:00:00 21.7 9 Sudoeste 17 Sudoeste 0 1018.2 0 69
2019-06-17 11:00:00 21.2 12 Sudoeste 17 Sudoeste 0 1017.9 0 74
2019-06-17 10:00:00 20.2 7 Oeste 12 Oeste 0 1018.3 0.6 82
2019-06-17 09:00:00 19 9 Oeste 13 Oeste 0 1018.2 0.9 89
2019-06-17 08:00:00 17.3 6 Noroeste 13 Oeste 0 1017.9 0.5 89
2019-06-17 07:00:00 17.5 6 Noroeste 9 Noroeste 0 1017.7 -0.1 89
2019-06-17 06:00:00 16.7 7 Noroeste 10 Noroeste 0 1017.3 -1.1 89
2019-06-17 05:00:00 17.1 8 Noroeste 13 Oeste 0 1017.4 -1.3 88
2019-06-17 04:00:00 17.3 9 Noroeste 12 Noroeste 0 1017.8 -1.1 87
2019-06-17 03:00:00 17.8 9 Noroeste 12 Oeste 0 1018.4 -0.6 87
2019-06-17 02:00:00 18.7 8 Oeste 15 Oeste 0 1018.7 0.2 86
2019-06-17 01:00:00 19.3 9 Oeste 18 Oeste 0 1018.9 1 84
2019-06-17 00:00:00 19.4 12 Oeste 21 Oeste 0 1019 1.2 80
2019-06-16 23:00:00 19.7 12 Oeste 22 Oeste 0 1018.5 0.7 77
2019-06-16 22:00:00 20.3 12 Oeste 24 Oeste 0 1017.9 0.2 73
2019-06-16 21:00:00 21.4 18 Oeste 59 Sudoeste 0 1017.8 0.5 69
2019-06-16 20:00:00 22.7 10 Oeste 18 Oeste 0 1017.8 0.6 66
2019-06-16 19:00:00 23.4 8 Sudoeste 22 Sudoeste 0 1017.7 0.7 66
2019-06-16 18:00:00 23.3 6 Sudeste 28 Sudeste 0 1017.3 -0.6 68
2019-06-16 17:00:00 23.8 16 Sudeste 32 Sudeste 0 1017.2 -0.8 69
2019-06-16 16:00:00 23.5 15 Sudeste 30 Sudeste 0 1017 -0.6 60
2019-06-16 15:00:00 24.1 15 Sudeste 34 Sudeste 0 1017.9 0.7 52
2019-06-16 14:00:00 22.7 18 Sudeste 35 Sudeste 0 1018 0.9 59
2019-06-16 13:00:00 22.7 14 Sudeste 34 Sudeste 0 1017.6 -0.1 64
2019-06-16 12:00:00 22.8 18 Este 36 Sudeste 0 1017.2 -0.4 64
2019-06-16 11:00:00 21.6 15 Sudeste 28 Sudeste 0 1017.1 0.1 69
2019-06-16 10:00:00 20.6 10 Este 19 Sudeste 0 1017.7 1.2 81
2019-06-16 09:00:00 19.3 9 Este 19 Sudeste 0 1017.6 1.4 88
2019-06-16 08:00:00 14.9 7 Norte 9 Norte 0 1017 0.3 90
2019-06-16 07:00:00 14.2 4 Este 8 Nordeste 0 1016.5 -0.1 88
2019-06-16 06:00:00 14.1 7 Nordeste 9 Norte 0 1016.2 -0.7 88
2019-06-16 05:00:00 13.5 5 Norte 9 Norte 0 1016.7 -0.5 86
2019-06-16 04:00:00 14.7 5 Sudeste 6 Sudeste 0 1016.6 -1.2 85
2019-06-16 03:00:00 14.7 5 Nordeste 7 Nordeste 0 1016.9 -0.9 85
2019-06-16 02:00:00 15.4 3 Sudeste 6 Nordeste 0 1017.2 0.4 84
2019-06-16 01:00:00 15.5 4 Noroeste 12 Oeste 0 1017.8 1.7 83
2019-06-16 00:00:00 16.7 7 Oeste 12 Oeste 0 1017.8 1.4 82
2019-06-15 23:00:00 17.8 7 Oeste 11 Oeste 0 1016.8 0.8 80
2019-06-15 22:00:00 18.8 8 Oeste 21 Oeste 0 1016.1 0 77
2019-06-15 21:00:00 19.8 14 Oeste 25 Oeste 0 1016.4 -0.1 72
2019-06-15 20:00:00 21.2 14 Oeste 25 Sudoeste 0 1016 -0.9 67
2019-06-15 19:00:00 21.3 16 Oeste 27 Oeste 0 1016.1 -1.3 66
2019-06-15 18:00:00 22.6 15 Oeste 28 Oeste 0 1016.5 -1.2 61
2019-06-15 17:00:00 22.9 14 Oeste 29 Sudoeste 0 1016.9 -0.9 59
2019-06-15 16:00:00 22.1 19 Sudoeste 30 Sudoeste 0 1017.4 -0.6 61
2019-06-15 15:00:00 21.6 21 Sudoeste 30 Sudoeste 0 1017.7 0.1 63
2019-06-15 14:00:00 21.9 14 Sudoeste 24 Sudoeste 0 1017.8 0.7 63
2019-06-15 13:00:00 20.7 14 Sudoeste 24 Sudoeste 0 1018 0.8 67
2019-06-15 12:00:00 21 12 Oeste 24 Oeste 0 1017.6 0.8 67
2019-06-15 11:00:00 21.1 19 Oeste 33 Oeste 0 1017.1 0.7 59
2019-06-15 10:00:00 19.8 21 Oeste 32 Oeste 0 1017.2 1.3 70
2019-06-15 09:00:00 18.7 18 Oeste 26 Oeste 0 1016.8 1.7 78
2019-06-15 08:00:00 17.6 12 Oeste 30 Oeste 0 1016.4 1.4 82
2019-06-15 07:00:00 17.6 17 Oeste 37 Oeste 0 1015.9 1.2 81
2019-06-15 06:00:00 17.7 24 Oeste 42 Oeste 0 1015.1 0.4 79
2019-06-15 05:00:00 17.6 30 Oeste 45 Oeste 0 1015 -0.1 79
2019-06-15 04:00:00 17.6 28 Oeste 51 Oeste 0 1014.7 -0.6 80
2019-06-15 03:00:00 17.7 28 Oeste 53 Oeste 0 1014.7 -0.1 80
2019-06-15 02:00:00 18 26 Oeste 46 Oeste 0 1015.1 0.8 80
2019-06-15 01:00:00 18.3 31 Oeste 45 Oeste 0 1015.3 1.7 79
2019-06-15 00:00:00 18.3 28 Oeste 56 Oeste 0 1014.8 1.4 77
2019-06-14 23:00:00 18.6 37 Oeste 57 Oeste 0 1014.3 0.7 72
2019-06-14 22:00:00 19 39 Oeste 66 Oeste 0 1013.6 -0.3 67
2019-06-14 21:00:00 19.6 39 Oeste 68 Oeste 0 1013.4 -0.6 62
2019-06-14 20:00:00 20 30 Oeste 67 Oeste 0 1013.6 -0.7 62
2019-06-14 19:00:00 20.4 37 Oeste 63 Oeste 0 1013.9 -0.4 63
2019-06-14 18:00:00 21 30 Oeste 61 Oeste 0 1014 -0.8 62
2019-06-14 17:00:00 21.3 32 Oeste 63 Sudoeste 0 1014.3 -0.5 61
2019-06-14 16:00:00 22 31 Oeste 63 Sudoeste 0 1014.3 -0.3 60
2019-06-14 15:00:00 20.7 42 Oeste 69 Oeste 0 1014.8 0.4 61
2019-06-14 14:00:00 20.8 42 Oeste 68 Oeste 0 1014.8 0.8 61
2019-06-14 13:00:00 20.5 48 Oeste 75 Oeste 0 1014.6 1.3 62
2019-06-14 12:00:00 20.3 47 Oeste 68 Oeste 0 1014.4 2 64
2019-06-14 11:00:00 19.9 42 Oeste 67 Oeste 0 1014 2.2 66
2019-06-14 10:00:00 19.7 39 Oeste 62 Oeste 0 1013.3 1.7 72
2019-06-14 09:00:00 19.2 39 Oeste 60 Oeste 0 1012.4 1.1 79
2019-06-14 08:00:00 19.1 30 Oeste 49 Oeste 0 1011.8 1.3 88
2019-06-14 07:00:00 19.3 22 Oeste 43 Oeste 0 1011.6 1.9 87
2019-06-14 06:00:00 19.6 16 Oeste 36 Sudoeste 0 1011.3 0.3 86
2019-06-14 05:00:00 19.6 26 Oeste 37 Oeste 0 1010.5 -2.6 84
2019-06-14 04:00:00 19.2 17 Oeste 35 Oeste 0 1009.7 -3.4 85
2019-06-14 03:00:00 18.8 8 Oeste 34 Noroeste 0.4 1011 -0.9 85
2019-06-14 02:00:00 20.2 11 Oeste 26 Oeste 0 1013.1 0.9 82
2019-06-14 01:00:00 20.2 11 Oeste 16 Oeste 0 1013.1 2.3 83
2019-06-14 00:00:00 20.5 4 Oeste 14 Oeste 0 1011.9 1.5 80
2019-06-13 23:00:00 20.6 6 Oeste 13 Oeste 0 1012.2 2.7 80
2019-06-13 22:00:00 20.6 7 Sudoeste 14 Sudoeste 0 1010.8 1.7 78
2019-06-13 21:00:00 20.8 10 Sudoeste 18 Sudoeste 0 1010.4 1.3 78
2019-06-13 20:00:00 21.2 11 Sudoeste 15 Sudoeste 0 1009.5 0.2 74
2019-06-13 19:00:00 21.8 7 Sudoeste 17 Sudoeste 0 1009.1 -0.6 70
2019-06-13 18:00:00 22.1 6 Sudoeste 16 Sudoeste 0 1009.1 -1 70
2019-06-13 17:00:00 23.5 9 Sur 19 Sudeste 0 1009.3 -0.8 65
2019-06-13 16:00:00 23.1 10 Sudeste 22 Sudeste 0 1009.7 -0.4 66
2019-06-13 15:00:00 23.7 6 Sur 24 Sur 0 1010.1 0 63
2019-06-13 14:00:00 23.2 9 Oeste 24 Oeste 0 1010.1 -0.2 62
2019-06-13 13:00:00 23 11 Oeste 25 Oeste 0 1010.1 -0.4 65
2019-06-13 12:00:00 23.8 8 Sudoeste 19 Sudoeste 0 1010.1 -0.4 59
2019-06-13 11:00:00 21.8 9 Oeste 19 Oeste 0 1010.3 0.1 67
2019-06-13 10:00:00 20.1 8 Sudoeste 14 Sudoeste 0 1010.5 0.3 76
2019-06-13 09:00:00 19.3 3 Sudoeste 8 Oeste 0 1010.5 0.6 83
2019-06-13 08:00:00 17.5 4 Oeste 12 Noroeste 0 1010.2 0.3 86
2019-06-13 07:00:00 16.8 10 Noroeste 14 Noroeste 0 1010.2 0.3 85
2019-06-13 06:00:00 17.3 5 Noroeste 13 Oeste 0 1009.9 -1.1 83
2019-06-13 05:00:00 17.8 4 Oeste 15 Nordeste 0 1009.9 -1.6 81
2019-06-13 04:00:00 18.6 8 Este 22 Nordeste 0 1009.9 -1.6 79
2019-06-13 03:00:00 19 8 Nordeste 32 Este 0 1011 -1.1 81
2019-06-13 02:00:00 19.3 16 Este 32 Este 0 1011.5 -0.3 81
2019-06-13 01:00:00 19.2 19 Este 29 Este 0 1011.5 0.2 82
2019-06-13 00:00:00 19 12 Este 22 Este 0 1012.1 1.3 82
2019-06-12 23:00:00 19 12 Este 21 Este 0 1011.8 1.4 82
2019-06-12 22:00:00 19.3 14 Este 51 Nordeste 0 1011.3 0.9 81
2019-06-12 21:00:00 19.8 22 Sudeste 47 Sudeste 0 1010.8 -0.5 78
2019-06-12 20:00:00 20.6 21 Sudeste 37 Sudeste 0 1010.4 -1.4 74
2019-06-12 19:00:00 21.6 23 Sudeste 40 Sudeste 0 1010.4 -1.8 68
2019-06-12 18:00:00 22 29 Este 44 Este 0 1011.3 -1.1 65
2019-06-12 17:00:00 22.8 30 Este 49 Sudeste 0 1011.8 -0.7 61
2019-06-12 16:00:00 22.9 30 Este 52 Sudeste 0 1012.2 -0.7 60
2019-06-12 15:00:00 22.1 34 Sudeste 51 Sudeste 0 1012.4 -0.7 61
2019-06-12 14:00:00 22.2 30 Sudeste 48 Sudeste 0 1012.5 -0.6 61
2019-06-12 13:00:00 22.2 24 Sudeste 40 Sudeste 0 1012.9 -0.3 60
2019-06-12 12:00:00 22.3 24 Este 44 Este 0 1013.1 0.1 57
2019-06-12 11:00:00 23.6 25 Este 46 Este 0 1013.1 0.6 46
2019-06-12 10:00:00 21.8 23 Este 41 Este 0 1013.2 1 57
2019-06-12 09:00:00 20.6 29 Este 42 Este 0 1013 1 58
2019-06-12 08:00:00 18.8 26 Este 44 Este 0 1012.5 0.8 72
2019-06-12 07:00:00 18.5 29 Este 50 Este 0 1012.2 0.8 73
2019-06-12 06:00:00 18.7 27 Este 50 Este 0 1012 0.8 73
2019-06-12 05:00:00 18.8 29 Este 50 Este 0 1011.7 0.7 76
2019-06-12 04:00:00 18.8 31 Este 62 Este 0 1011.4 0.8 75
2019-06-12 03:00:00 19 33 Este 59 Este 0 1011.2 0.6 76
2019-06-12 02:00:00 19.3 28 Este 55 Este 0 1011 2.1 78
2019-06-12 01:00:00 19.6 33 Este 54 Este 0 1010.6 3.4 79
2019-06-12 00:00:00 19.3 30 Este 55 Este 0 1010.6 3.4 78
2019-06-11 23:00:00 18.1 5 Este 18 Oeste 0 1008.9 1.8 75
2019-06-11 22:00:00 19.3 14 Oeste 35 Oeste 0 1007.2 0.4 72
2019-06-11 21:00:00 20 14 Oeste 37 Oeste 0 1007.2 0.3 70
2019-06-11 20:00:00 21.2 19 Oeste 37 Oeste 0 1007.1 -0.2 66
2019-06-11 19:00:00 21.1 20 Oeste 49 Oeste 0 1006.8 -1 65
2019-06-11 18:00:00 21.1 30 Oeste 58 Oeste 0 1006.9 -1.3 66
2019-06-11 17:00:00 21.5 24 Oeste 44 Oeste 0 1007.3 -1.3 66
2019-06-11 16:00:00 21.1 23 Oeste 46 Oeste 0 1007.8 -0.9 66
2019-06-11 15:00:00 21.1 27 Oeste 48 Oeste 0 1008.2 -0.8 64
2019-06-11 14:00:00 21.6 26 Oeste 44 Oeste 0 1008.6 -0.6 59
2019-06-11 13:00:00 21.8 17 Oeste 33 Oeste 0 1008.7 -0.6 65
2019-06-11 12:00:00 21.6 14 Oeste 27 Oeste 0 1009 -0.3 66
2019-06-11 11:00:00 19.9 9 Sudoeste 15 Sudoeste 0 1009.2 0 74
2019-06-11 10:00:00 19.5 3 Oeste 10 Oeste 0 1009.3 0.4 79
2019-06-11 09:00:00 18.2 2 Oeste 9 Sudoeste 0 1009.3 0.2 89
2019-06-11 08:00:00 16.8 6 Sur 12 Sudoeste 0 1009.2 -0.5 90
2019-06-11 07:00:00 15.7 9 Sudoeste 14 Sudoeste 0 1008.9 -1.1 90
2019-06-11 06:00:00 15 3 Oeste 10 Norte 0 1009.1 -1.5 88
2019-06-11 05:00:00 15.3 8 Oeste 14 Oeste 0 1009.7 -1.5 87
2019-06-11 04:00:00 15 6 Noroeste 13 Este 0 1010 -1.6 86
2019-06-11 03:00:00 15.3 6 Este 10 Este 0 1010.6 -1.4 83
2019-06-11 02:00:00 16.9 5 Noroeste 20 Oeste 0 1011.2 -0.7 82
2019-06-11 01:00:00 17.9 13 Oeste 20 Oeste 0 1011.6 0.3 81
2019-06-11 00:00:00 18.6 10 Oeste 23 Oeste 0 1012 1 80
2019-06-10 23:00:00 18.7 15 Oeste 37 Oeste 0 1011.9 0.5 77
2019-06-10 22:00:00 19 17 Oeste 45 Oeste 0 1011.3 -0.3 78
2019-06-10 21:00:00 19.6 32 Oeste 46 Oeste 0 1011 -1.2 75
2019-06-10 20:00:00 20.7 21 Oeste 45 Oeste 0 1011.4 -1.3 71
2019-06-10 19:00:00 21 29 Oeste 48 Oeste 0 1011.6 -1.5 69
2019-06-10 18:00:00 21.3 30 Oeste 52 Oeste 0 1012.2 -1.4 67
2019-06-10 17:00:00 21.6 31 Oeste 54 Oeste 0 1012.7 -1.4 65
2019-06-10 16:00:00 21.3 34 Oeste 54 Oeste 0 1013.1 -1 66
2019-06-10 15:00:00 21.3 37 Oeste 58 Oeste 0 1013.6 -0.5 66
2019-06-10 14:00:00 22 27 Oeste 52 Oeste 0 1014.1 -0.1 63
2019-06-10 13:00:00 22.9 21 Oeste 38 Oeste 0 1014.1 0.2 61
2019-06-10 12:00:00 22.1 11 Sudoeste 19 Sudoeste 0 1014.1 0.9 67
2019-06-10 11:00:00 21.5 9 Sudoeste 17 Sudoeste 0 1014.2 1.3 65
2019-06-10 10:00:00 21.6 3 Oeste 13 Noroeste 0 1013.9 1.3 70
2019-06-10 09:00:00 18.5 6 Noroeste 13 Noroeste 0 1013.2 0.7 86
2019-06-10 08:00:00 15.9 5 Noroeste 13 Nordeste 0 1012.9 0.2 85
2019-06-10 07:00:00 16.2 9 Nordeste 15 Sudoeste 0 1012.6 -0.4 82
2019-06-10 06:00:00 18.3 8 Oeste 16 Sudoeste 0 1012.5 -0.8 82
2019-06-10 05:00:00 17.9 6 Oeste 16 Noroeste 0 1012.7 -0.9 80
2019-06-10 04:00:00 17.2 9 Noroeste 23 Oeste 0 1013 -0.9 78
2019-06-10 03:00:00 17.7 13 Noroeste 33 Oeste 0 1013.3 -0.7 79
2019-06-10 02:00:00 18.7 22 Oeste 41 Oeste 0 1013.6 -0.4 77
2019-06-10 01:00:00 19.2 27 Oeste 42 Oeste 0 1013.9 0.3 73
2019-06-10 00:00:00 19.7 22 Oeste 47 Oeste 0 1014 0.4 70
2019-06-09 23:00:00 20.3 28 Oeste 45 Oeste 0 1014 0.2 69
2019-06-09 22:00:00 20.6 28 Oeste 46 Oeste 0 1013.6 -0.7 69
2019-06-09 21:00:00 21 28 Oeste 45 Oeste 0 1013.6 -1.4 64
2019-06-09 20:00:00 21.6 29 Oeste 48 Oeste 0 1013.8 -1.3 66
2019-06-09 19:00:00 21.8 27 Oeste 42 Oeste 0 1014.3 -1.6 70
2019-06-09 18:00:00 22.1 27 Oeste 51 Oeste 0 1015 -1.3 75
2019-06-09 17:00:00 22.7 27 Oeste 46 Oeste 0 1015.1 -1.8 72
2019-06-09 16:00:00 23.5 17 Oeste 33 Oeste 0 1015.9 -1.3 69
2019-06-09 15:00:00 23.5 15 Oeste 35 Oeste 0 1016.3 -1 70
2019-06-09 14:00:00 23.7 18 Oeste 35 Sudoeste 0 1016.9 -0.5 67
2019-06-09 13:00:00 23.3 17 Oeste 30 Oeste 0 1017.2 -0.3 69
2019-06-09 12:00:00 22.4 13 Oeste 30 Oeste 0 1017.3 0 71
2019-06-09 11:00:00 22.1 11 Oeste 23 Oeste 0 1017.4 0.3 75
2019-06-09 10:00:00 20.8 13 Oeste 23 Oeste 0 1017.5 0.4 80
2019-06-09 09:00:00 20.3 13 Oeste 22 Noroeste 0 1017.3 0 84
2019-06-09 08:00:00 19.9 12 Oeste 19 Oeste 0 1017.1 -0.3 84
2019-06-09 07:00:00 19.5 6 Oeste 13 Oeste 0 1017.1 -0.6 83
2019-06-09 06:00:00 19.5 8 Oeste 13 Oeste 0 1017.3 -0.7 81
2019-06-09 05:00:00 18.8 2 Norte 17 Sudeste 0 1017.4 -1.5 80
2019-06-09 04:00:00 19.5 12 Sudeste 19 Sudeste 0 1017.7 -1 80
2019-06-09 03:00:00 19.9 11 Este 17 Este 0 1018 -0.7 76
2019-06-09 02:00:00 19.6 12 Este 20 Este 0 1018.9 0.6 76
2019-06-09 01:00:00 19 9 Este 16 Este 0 1018.7 1.1 82
2019-06-09 00:00:00 19.6 10 Este 18 Este 0 1018.7 1.5 81
2019-06-08 23:00:00 19.8 10 Este 18 Este 0 1018.3 1.1 81
2019-06-08 22:00:00 20.1 11 Este 25 Sudeste 0 1017.6 0.5 81
2019-06-08 21:00:00 21 18 Sudeste 34 Sudeste 0 1017.2 0.2 78
2019-06-08 20:00:00 21.9 21 Sudeste 36 Este 0 1017.2 0.3 72
2019-06-08 19:00:00 22.6 22 Sudeste 44 Este 0 1017.1 0.1 70
2019-06-08 18:00:00 23 27 Este 49 Sudeste 0 1017 -0.1 70
2019-06-08 17:00:00 23.1 30 Sudeste 53 Sudeste 0 1016.9 -0.5 70
2019-06-08 16:00:00 23.1 30 Sudeste 55 Sudeste 0 1017 -0.8 69
2019-06-08 15:00:00 23.3 31 Sudeste 53 Sudeste 0 1017.1 -1.1 64
2019-06-08 14:00:00 23.6 27 Sudeste 47 Sudeste 0 1017.4 -0.6 60
2019-06-08 13:00:00 23.3 24 Sudeste 48 Sudeste 0 1017.8 -0.1 62
2019-06-08 12:00:00 22.9 21 Sudeste 39 Sudeste 0 1018.2 0.7 64
2019-06-08 11:00:00 21.6 21 Sudeste 37 Sudeste 0 1018 1.2 74
2019-06-08 10:00:00 20.9 10 Este 17 Este 0 1017.9 1 80
2019-06-08 09:00:00 19 7 Este 12 Este 0 1017.5 0.6 90
2019-06-08 08:00:00 16.5 5 Nordeste 11 Norte 0 1016.8 -0.3 91
2019-06-08 07:00:00 15.7 3 Norte 9 Norte 0 1016.9 -0.4 91
2019-06-08 06:00:00 16.1 4 Norte 14 Sudeste 0 1016.9 -0.6 90
2019-06-08 05:00:00 16.8 4 Sudeste 12 Sudeste 0 1017.1 -0.2 90
2019-06-08 04:00:00 17.8 8 Este 15 Sudeste 0 1017.3 0.3 90
2019-06-08 03:00:00 18.3 9 Sudeste 20 Este 0 1017.5 1.2 89
2019-06-08 02:00:00 17.1 10 Este 12 Este 0 1017.3 1.8 86
2019-06-08 01:00:00 17 7 Este 10 Este 0 1017 2.3 84
2019-06-08 00:00:00 17.8 0 Calma 14 Sudoeste 0 1016.3 2 82
2019-06-07 23:00:00 18.9 8 Oeste 23 Sudoeste 0 1015.5 1 80
2019-06-07 22:00:00 19.1 16 Sudoeste 35 Oeste 0 1014.7 0.4 77
2019-06-07 21:00:00 20.3 21 Oeste 46 Oeste 0 1014.3 0 69
2019-06-07 20:00:00 21.6 27 Oeste 45 Oeste 0 1014.5 -0.1 63
2019-06-07 19:00:00 21.8 22 Oeste 37 Oeste 0 1014.3 -0.6 69
2019-06-07 18:00:00 22.3 21 Oeste 46 Oeste 0 1014.3 -0.5 69
2019-06-07 17:00:00 22.1 28 Oeste 48 Oeste 0 1014.6 -0.4 68
2019-06-07 16:00:00 22.2 22 Oeste 43 Oeste 0 1014.9 0 68
2019-06-07 15:00:00 22.6 21 Oeste 37 Sudoeste 0 1014.8 0.3 66
2019-06-07 14:00:00 23.2 17 Oeste 36 Sudoeste 0 1015 1 63
2019-06-07 13:00:00 22.8 14 Oeste 28 Sudoeste 0 1014.9 1.6 62
2019-06-07 12:00:00 21.6 13 Sudoeste 26 Sudoeste 0 1014.5 1.7 70
2019-06-07 11:00:00 20.8 5 Sudoeste 15 Sudoeste 0 1014 2 70
2019-06-07 10:00:00 20.3 4 Sudoeste 11 Sudoeste 0 1013.3 2.1 66
2019-06-07 09:00:00 18 4 Oeste 12 Sudoeste 0 1012.8 2.2 84
2019-06-07 08:00:00 16.4 5 Sudeste 13 Sudoeste 0 1012 1.1 85
2019-06-07 07:00:00 16.7 4 Noroeste 27 Oeste 0 1011.2 0.2 83
2019-06-07 06:00:00 17.1 18 Oeste 26 Sudoeste 0 1010.6 -0.3 84
2019-06-07 05:00:00 17.7 22 Sudoeste 33 Oeste 0 1010.9 0 82
2019-06-07 04:00:00 17.8 18 Oeste 46 Oeste 0 1011 0.2 77
2019-06-07 03:00:00 18.2 26 Oeste 52 Oeste 0 1010.9 0 76
2019-06-07 02:00:00 18.6 24 Oeste 41 Oeste 0 1010.9 0.5 73
2019-06-07 01:00:00 19 23 Oeste 39 Oeste 0 1010.8 1 75
2019-06-07 00:00:00 19 19 Oeste 46 Oeste 0 1010.9 1 76
2019-06-06 23:00:00 19.4 26 Oeste 46 Oeste 0 1010.4 0.7 72
2019-06-06 22:00:00 19.6 21 Oeste 35 Oeste 0 1009.8 -0.3 64
2019-06-06 21:00:00 21 18 Noroeste 41 Oeste 0 1009.9 -0.8 56
2019-06-06 20:00:00 22.7 24 Oeste 40 Oeste 0 1009.7 -1.6 46
2019-06-06 19:00:00 22.8 16 Oeste 39 Oeste 0 1010.1 -2 55
2019-06-06 18:00:00 22.2 19 Oeste 37 Oeste 0 1010.7 -2.1 60
2019-06-06 17:00:00 23.2 15 Oeste 29 Oeste 0 1011.3 -1.8 59
2019-06-06 16:00:00 22.9 17 Oeste 32 Oeste 0 1012.1 -1.2 60
2019-06-06 15:00:00 23.1 16 Oeste 29 Oeste 0 1012.8 -0.3 62
2019-06-06 14:00:00 22.4 15 Oeste 28 Oeste 0 1013.1 -0.1 64
2019-06-06 13:00:00 22.4 13 Oeste 29 Sudoeste 0 1013.3 0.2 65
2019-06-06 12:00:00 21.1 18 Oeste 27 Oeste 0 1013.1 0.1 71
2019-06-06 11:00:00 20.4 14 Sudoeste 22 Oeste 0 1013.2 0.5 71
2019-06-06 10:00:00 19.2 5 Sudoeste 11 Sudoeste 0 1013.1 1 85
2019-06-06 09:00:00 17.9 5 Oeste 11 Oeste 0 1013 1.2 91
2019-06-06 08:00:00 15.5 6 Norte 13 Norte 0 1012.7 1 92
2019-06-06 07:00:00 15.3 10 Norte 17 Norte 0 1012.1 0.2 91
2019-06-06 06:00:00 15.7 11 Norte 14 Nordeste 0 1011.8 -0.4 91
2019-06-06 05:00:00 16.4 11 Este 15 Este 0 1011.7 -0.7 90
2019-06-06 04:00:00 15.9 11 Este 15 Este 0 1011.9 -0.5 88
2019-06-06 03:00:00 15.5 10 Este 12 Nordeste 0 1012.2 0.1 86
2019-06-06 02:00:00 15.8 4 Este 9 Este 0 1012.4 0.7 82
2019-06-06 01:00:00 17.3 4 Norte 20 Oeste 0 1012.4 1.3 80
2019-06-06 00:00:00 18.9 12 Oeste 26 Oeste 0 1012.1 1.2 78
2019-06-05 23:00:00 19 17 Oeste 32 Oeste 0 1011.7 1.1 74
2019-06-05 22:00:00 19.8 17 Oeste 40 Oeste 0 1011.1 0.3 71
2019-06-05 21:00:00 20.2 24 Oeste 35 Oeste 0 1010.9 0.3 67
2019-06-05 20:00:00 20.6 18 Oeste 37 Oeste 0 1010.6 0.1 64
2019-06-05 19:00:00 20.9 22 Oeste 53 Oeste 0 1010.8 -0.2 63
2019-06-05 18:00:00 22.4 25 Oeste 58 Oeste 0 1010.6 -0.7 56
2019-06-05 17:00:00 22 37 Oeste 65 Oeste 0 1010.5 -1.5 55
2019-06-05 16:00:00 22.7 44 Oeste 75 Oeste 0 1011 -0.5 48
2019-06-05 15:00:00 21.8 46 Oeste 65 Oeste 0 1011.3 0.5 51
2019-06-05 14:00:00 22.4 31 Oeste 57 Oeste 0 1012 1.6 52
2019-06-05 13:00:00 21.3 37 Oeste 69 Oeste 0 1011.5 1.5 51
2019-06-05 12:00:00 21.5 41 Oeste 66 Oeste 0 1010.8 1.8 48
2019-06-05 11:00:00 21.5 29 Oeste 70 Sudoeste 0 1010.4 2 59
2019-06-05 10:00:00 21.1 32 Oeste 66 Sudoeste 0 1010 2.3 67
2019-06-05 09:00:00 20.7 35 Oeste 67 Sudoeste 0 1009 1.9 72
2019-06-05 08:00:00 20.3 33 Oeste 61 Sudoeste 0 1008.4 1.1 77
2019-06-05 07:00:00 19.9 36 Oeste 61 Oeste 0 1007.7 -0.4 82
2019-06-05 06:00:00 19.8 37 Oeste 67 Oeste 0 1007.1 -1.3 81
2019-06-05 05:00:00 19.8 32 Oeste 57 Oeste 0 1007.3 -1 82
2019-06-05 04:00:00 20 34 Oeste 64 Oeste 0 1008.1 -0.6 80
2019-06-05 03:00:00 20.3 39 Oeste 63 Oeste 0 1008.4 -0.3 80
2019-06-05 02:00:00 20.8 27 Oeste 52 Oeste 0 1008.3 -0.5 80
2019-06-05 01:00:00 20.7 25 Oeste 42 Sudoeste 0 1008.7 0.2 79
2019-06-05 00:00:00 20.8 14 Oeste 33 Sudoeste 0 1008.7 0.1 81
2019-06-04 23:00:00 21.3 18 Oeste 35 Oeste 0 1008.8 0 77
2019-06-04 22:00:00 20.9 16 Oeste 27 Oeste 0 1008.5 -0.4 78
2019-06-04 21:00:00 21.9 16 Oeste 34 Oeste 0 1008.6 -0.9 72
2019-06-04 20:00:00 22.7 21 Oeste 35 Oeste 0 1008.8 -1.9 65
2019-06-04 19:00:00 22.8 21 Oeste 32 Oeste 0 1008.9 -2.5 67
2019-06-04 18:00:00 23.6 13 Oeste 33 Oeste 0 1009.5 -2.7 68
2019-06-04 17:00:00 23.5 19 Oeste 34 Oeste 0 1010.7 -2.3 62
2019-06-04 16:00:00 23.8 17 Oeste 37 Oeste 0 1011.4 -1.8 67
2019-06-04 15:00:00 23.1 22 Oeste 40 Oeste 0 1012.2 -1.2 69
2019-06-04 14:00:00 23.9 15 Oeste 33 Sudoeste 0 1013 -0.6 65
2019-06-04 13:00:00 23.5 16 Sudoeste 27 Sudoeste 0 1013.2 -0.3 66
2019-06-04 12:00:00 22.9 12 Oeste 25 Oeste 0 1013.4 0.1 69
2019-06-04 11:00:00 22.3 13 Oeste 24 Oeste 0 1013.6 0.6 72
2019-06-04 10:00:00 21.4 10 Oeste 19 Sudoeste 0 1013.5 0.7 73
2019-06-04 09:00:00 18.9 5 Oeste 9 Noroeste 0 1013.3 0.9 85
2019-06-04 08:00:00 15.2 0 Calma 6 Norte 0 1013 0.2 87
2019-06-04 07:00:00 13.5 5 Norte 8 Norte 0 1012.8 -0.4 84
2019-06-04 06:00:00 13.9 3 Noroeste 10 Norte 0 1012.4 -1.8 82
2019-06-04 05:00:00 14 7 Norte 8 Norte 0 1012.8 -2.2 78
2019-06-04 04:00:00 -- -- -- -- -- -- -- -- --
2019-06-04 03:00:00 -- -- -- -- -- -- -- -- --
2019-06-04 02:00:00 -- -- -- -- -- -- -- -- --
2019-06-04 01:00:00 -- -- -- -- -- -- -- -- --
2019-06-04 00:00:00 -- -- -- -- -- -- -- -- --
2019-06-03 23:00:00 -- -- -- -- -- -- -- -- --
2019-06-03 22:00:00 20.4 10 Oeste 18 Oeste 0 1015 -0.7 65
2019-06-03 21:00:00 22.1 8 Sudoeste 12 Sudoeste 0 1015.2 -1.1 59
2019-06-03 20:00:00 22.4 4 Sudoeste 12 Sudoeste 0 1015.2 -1.5 57
2019-06-03 19:00:00 22.4 5 Oeste 18 Sudoeste 0 1015.7 -1.6 61
2019-06-03 18:00:00 22.6 9 Sudoeste 17 Sudoeste 0 1016.3 -1.5 67
2019-06-03 17:00:00 22.1 9 Sudoeste 18 Sur 0 1016.7 -1.5 69
2019-06-03 16:00:00 21.9 9 Sur 18 Sudeste 0 1017.3 -1.3 69
2019-06-03 15:00:00 22.6 10 Sur 19 Sur 0 1017.8 -0.6 67
2019-06-03 14:00:00 22.4 10 Sur 51 Este 0 1018.2 -0.2 70
2019-06-03 13:00:00 21.9 11 Sur 17 Sudeste 0 1018.6 0.3 73
2019-06-03 12:00:00 21.5 8 Sur 16 Sudeste 0 1018.4 0.6 76
2019-06-03 11:00:00 21 8 Sur 15 Sur 0 1018.4 1.1 77
2019-06-03 10:00:00 20.7 6 Sur 12 Sur 0 1018.3 1 72
2019-06-03 09:00:00 18.5 2 Oeste 12 Norte 0 1017.8 0.4 87
2019-06-03 08:00:00 15 6 Norte 9 Norte 0 1017.3 -0.3 89
2019-06-03 07:00:00 13.6 6 Norte 8 Noroeste 0 1017.3 -0.6 87
2019-06-03 06:00:00 14.2 4 Norte 8 Norte 0 1017.4 -1.2 86
2019-06-03 05:00:00 14.2 6 Noroeste 8 Noroeste 0 1017.6 -1.5 85
2019-06-03 04:00:00 14.9 4 Norte 6 Norte 0 1017.9 -1.6 85
2019-06-03 03:00:00 15.5 3 Norte 4 Norte 0 1018.6 -0.9 82
2019-06-03 02:00:00 16.7 3 Oeste 4 Oeste 0 1019.1 0.4 81
2019-06-03 01:00:00 17.7 4 Oeste 7 Oeste 0 1019.5 1.6 80
2019-06-03 00:00:00 18.4 4 Sudoeste 7 Sudoeste 0 1019.5 2 77
2019-06-02 23:00:00 20.1 6 Sur 11 Sur 0 1018.7 1.4 73
2019-06-02 22:00:00 20.7 4 Sudeste 7 Sudeste 0 1017.9 0.2 64
2019-06-02 21:00:00 21.7 4 Sudeste 10 Sudeste 0 1017.5 -0.7 58
2019-06-02 20:00:00 23 6 Este 14 Sudeste 0 1017.3 -1.3 53
2019-06-02 19:00:00 23.4 5 Sudeste 15 Sudeste 0 1017.7 -1.3 51
2019-06-02 18:00:00 23.5 8 Sudeste 15 Sur 0 1018.2 -1.1 47
2019-06-02 17:00:00 23.8 7 Sur 16 Sudoeste 0 1018.6 -1 44
2019-06-02 16:00:00 23.6 7 Sur 18 Sudoeste 0 1019 -0.7 44
2019-06-02 15:00:00 23.6 10 Sudoeste 19 Sudoeste 0 1019.3 -0.3 46
2019-06-02 14:00:00 23.3 9 Sudoeste 18 Sudoeste 0 1019.6 0.3 50
2019-06-02 13:00:00 23 12 Sudoeste 20 Oeste 0 1019.7 0.5 57
2019-06-02 12:00:00 23.1 12 Sudoeste 20 Sudoeste 0 1019.6 0.5 55
2019-06-02 11:00:00 23 8 Oeste 16 Oeste 0 1019.3 0.3 42
2019-06-02 10:00:00 20.4 10 Sudoeste 16 Sur 0 1019.2 0.5 64
2019-06-02 09:00:00 19 3 Sur 8 Sur 0 1019.1 0.5 72
2019-06-02 08:00:00 13.5 4 Noroeste 8 Norte 0 1019 -0.1 83
2019-06-02 07:00:00 13.1 5 Noroeste 8 Noroeste 0 1018.7 -0.7 82
2019-06-02 06:00:00 13.3 4 Noroeste 6 Norte 0 1018.6 -0.9 79
2019-06-02 05:00:00 13.8 3 Noroeste 7 Noroeste 0 1019.1 -0.5 70
2019-06-02 04:00:00 15.7 3 Norte 9 Nordeste 0 1019.4 -0.2 65
2019-06-02 03:00:00 18.2 8 Este 26 Este 0 1019.5 -0.3 61
2019-06-02 02:00:00 19.7 20 Este 37 Este 0 1019.6 0.2 62
2019-06-02 01:00:00 20.1 26 Este 38 Este 0 1019.6 1 59
2019-06-02 00:00:00 20.1 17 Este 38 Este 0 1019.8 1.3 64
2019-06-01 23:00:00 19.8 15 Este 30 Este 0 1019.4 1.2 68
2019-06-01 22:00:00 20.4 19 Este 34 Este 0 1018.6 0.4 66
2019-06-01 21:00:00 21.4 21 Este 38 Este 0 1018.5 -0.2 60
2019-06-01 20:00:00 22.4 24 Este 42 Sudeste 0 1018.2 -0.7 56
2019-06-01 19:00:00 22.9 27 Este 50 Este 0 1018.2 -1 55
2019-06-01 18:00:00 23.4 28 Sudeste 50 Sudeste 0 1018.7 -1 52
2019-06-01 17:00:00 23.5 32 Sudeste 55 Este 0 1018.9 -1.2 50
2019-06-01 16:00:00 23.9 29 Sudeste 52 Este 0 1019.2 -1 48
2019-06-01 15:00:00 24.4 22 Sudeste 50 Sudeste 0 1019.7 -0.4 46
2019-06-01 14:00:00 24.2 29 Sudeste 48 Este 0 1020.1 -0.1 45
2019-06-01 13:00:00 24.2 23 Sudeste 45 Sudeste 0 1020.2 0 46
2019-06-01 12:00:00 25.2 31 Este 47 Sudeste 0 1020.1 0 36
2019-06-01 11:00:00 24.3 23 Este 41 Este 0 1020.2 0.2 41
2019-06-01 10:00:00 22.8 22 Este 37 Este 0 1020.2 0.4 45
2019-06-01 09:00:00 21.2 22 Este 35 Este 0 1020.1 0.2 53
2019-06-01 08:00:00 19.1 17 Este 30 Este 0 1020 -0.2 66
2019-06-01 07:00:00 16.3 10 Este 20 Nordeste 0 1019.8 -0.4 76
2019-06-01 06:00:00 18.3 14 Nordeste 25 Nordeste 0 1019.9 0 65
2019-06-01 05:00:00 18.3 15 Nordeste 25 Este 0 1020.2 0 73
2019-06-01 04:00:00 19 17 Nordeste 48 Este 0 1020.2 -0.2 74
2019-06-01 03:00:00 19.3 25 Este 49 Este 0 1019.9 -0.6 75
2019-06-01 02:00:00 19.4 29 Este 49 Este 0 1020.2 0.2 72
2019-06-01 01:00:00 19.9 29 Este 46 Este 0 1020.4 0.6 68
2019-06-01 00:00:00 20 25 Este 49 Este 0 1020.5 1.2 67
2019-05-31 23:00:00 20.1 24 Este 45 Este 0 1020 0.7 68
2019-05-31 22:00:00 20.3 21 Este 45 Este 0 1019.8 0.4 68
2019-05-31 21:00:00 20.7 33 Este 53 Sudeste 0 1019.3 -0.5 70
2019-05-31 20:00:00 21.3 33 Sudeste 56 Este 0 1019.3 -0.7 68
2019-05-31 19:00:00 22 34 Sudeste 62 Sudeste 0 1019.4 -1.1 64
2019-05-31 18:00:00 22.8 33 Sudeste 59 Sudeste 0 1019.8 -1.3 58
2019-05-31 17:00:00 24.4 32 Este 51 Este 0 1020 -1.8 50
2019-05-31 16:00:00 25.5 31 Este 57 Este 0 1020.5 -1.5 44
2019-05-31 15:00:00 24.9 27 Este 52 Este 0 1021.1 -0.9 47
2019-05-31 14:00:00 25 31 Este 56 Este 0 1021.8 -0.1 43
2019-05-31 13:00:00 24.4 34 Este 58 Este 0 1022 0.2 44
2019-05-31 12:00:00 23.5 35 Este 59 Sudeste 0 1022 0.7 47
2019-05-31 11:00:00 23.1 36 Este 58 Este 0 1021.9 0.6 44
2019-05-31 10:00:00 21.5 33 Este 51 Este 0 1021.8 0.8 53
2019-05-31 09:00:00 20.7 27 Este 46 Este 0 1021.3 0.4 56
2019-05-31 08:00:00 19.4 22 Este 47 Este 0 1021.3 0.3 62
2019-05-31 07:00:00 18.6 29 Este 57 Este 0 1021 -0.1 65
2019-05-31 06:00:00 18.8 34 Este 61 Sudeste 0 1020.9 -1.2 69
2019-05-31 05:00:00 19.2 29 Este 53 Este 0 1021 -1.9 67
2019-05-31 04:00:00 19.3 30 Este 45 Este 0 1021.1 -2.2 57
2019-05-31 03:00:00 18.9 24 Este 47 Este 0 1022.1 -1.3 69
2019-05-31 02:00:00 18.8 29 Este 51 Este 0 1022.9 -0.1 71
2019-05-31 01:00:00 19.1 32 Este 58 Este 0 1023.3 0.9 70
2019-05-31 00:00:00 19.2 25 Este 51 Este 0 1023.4 1.3 71
2019-05-30 23:00:00 19.7 30 Este 48 Este 0 1023 1.2 66
2019-05-30 22:00:00 19.7 25 Este 37 Este 0 1022.4 0.4 69
2019-05-30 21:00:00 20.7 19 Este 39 Este 0 1022.1 -0.1 66
2019-05-30 20:00:00 22 23 Este 49 Sudeste 0 1021.8 -0.8 62
2019-05-30 19:00:00 22 30 Sudeste 54 Sudeste 0 1022 -0.8 61
2019-05-30 18:00:00 22.4 32 Sudeste 51 Este 0 1022.2 -1 56
2019-05-30 17:00:00 23.3 30 Este 52 Sudeste 0 1022.6 -0.8 49
2019-05-30 16:00:00 23.3 35 Este 56 Sudeste 0 1022.8 -0.8 50
2019-05-30 15:00:00 23.4 36 Este 60 Sudeste 0 1023.2 -0.5 46
2019-05-30 14:00:00 23 27 Sudeste 48 Sudeste 0 1023.4 -0.3 53
2019-05-30 13:00:00 23.7 27 Este 47 Este 0 1023.6 0.1 48
2019-05-30 12:00:00 23.6 29 Este 50 Este 0 1023.7 0.7 49
2019-05-30 11:00:00 22.6 26 Este 46 Este 0 1023.7 1.1 53
2019-05-30 10:00:00 20.8 31 Este 49 Este 0 1023.5 1.3 59
2019-05-30 09:00:00 20 25 Este 45 Este 0 1023 1.1 61
2019-05-30 08:00:00 19.3 21 Este 34 Este 0 1022.6 0.6 59
2019-05-30 07:00:00 18.6 17 Este 32 Este 0 1022.2 0 65
2019-05-30 06:00:00 18.2 17 Este 30 Este 0 1021.9 -0.4 70
2019-05-30 05:00:00 18.7 18 Este 38 Este 0 1022 -0.4 68
2019-05-30 04:00:00 18.7 25 Este 41 Este 0 1022.2 0.2 66
2019-05-30 03:00:00 18.7 27 Este 43 Este 0 1022.3 0.4 70
2019-05-30 02:00:00 19.1 22 Este 40 Este 0 1022.4 1.2 65
2019-05-30 01:00:00 19.3 23 Este 42 Este 0 1022 1.5 65
2019-05-30 00:00:00 19.3 22 Este 38 Este 0 1021.9 2 64
2019-05-29 23:00:00 19.3 15 Este 32 Este 0 1021.2 1.8 71
2019-05-29 22:00:00 19.5 21 Este 39 Este 0 1020.5 1.4 72
2019-05-29 21:00:00 20 27 Este 44 Este 0 1019.9 0.8 70
2019-05-29 20:00:00 21 26 Sudeste 46 Sudeste 0 1019.4 0.3 67
2019-05-29 19:00:00 21.7 27 Sudeste 46 Sudeste 0 1019.1 -0.1 63
2019-05-29 18:00:00 22.2 26 Sudeste 42 Sudeste 0 1019.1 0.1 62
2019-05-29 17:00:00 22.8 24 Sudeste 44 Sudeste 0 1019.1 0 56
2019-05-29 16:00:00 22.9 22 Sudeste 48 Sudeste 0 1019.2 0.6 56
2019-05-29 15:00:00 22.7 26 Sudeste 52 Sudeste 0 1019 0.5 62
2019-05-29 14:00:00 22.7 30 Sudeste 49 Este 0 1019.1 0.6 59
2019-05-29 13:00:00 23.1 25 Sudeste 45 Este 0 1018.6 0.2 61
2019-05-29 12:00:00 23.9 31 Este 48 Este 0 1018.5 0.5 50
2019-05-29 11:00:00 23.5 26 Este 42 Este 0 1018.5 1.3 52
2019-05-29 10:00:00 22.8 21 Este 40 Este 0 1018.4 1.8 54
2019-05-29 09:00:00 22 27 Este 46 Este 0 1018 1.8 51
2019-05-29 08:00:00 20.1 24 Este 37 Este 0 1017.2 1.5 66
2019-05-29 07:00:00 19.5 16 Este 39 Este 0 1016.6 1 77
2019-05-29 06:00:00 19.8 24 Este 50 Este 0 1016.2 1 71
2019-05-29 05:00:00 19.8 28 Este 51 Este 0 1015.7 0.3 73
2019-05-29 04:00:00 20 24 Este 46 Este 0 1015.6 0.7 79
2019-05-29 03:00:00 19.9 26 Este 42 Este 0 1015.2 0.7 81
2019-05-29 02:00:00 19.4 9 Este 27 Este 0 1015.4 1.5 80
2019-05-29 01:00:00 19.3 10 Este 19 Sudeste 0 1014.9 1.8 85
2019-05-29 00:00:00 19.5 9 Este 16 Este 0 1014.5 1.9 86
2019-05-28 23:00:00 19.9 5 Este 9 Este 0 1013.9 1.8 84
2019-05-28 22:00:00 20.4 5 Este 14 Sudeste 0 1013.1 0.9 82
2019-05-28 21:00:00 21.2 10 Sudeste 19 Sudeste 0 1012.6 0.5 78
2019-05-28 20:00:00 22.1 11 Este 23 Este 0 1012.1 0 75
2019-05-28 19:00:00 22.6 11 Sudeste 22 Sudeste 0 1012.2 0 75
2019-05-28 18:00:00 23.4 11 Sudeste 24 Sudeste 0 1012.1 -0.3 72
2019-05-28 17:00:00 23.4 13 Sudeste 27 Sudeste 0 1012.1 -0.2 71
2019-05-28 16:00:00 23.7 15 Sudeste 27 Este 0 1012.2 -0.2 69
2019-05-28 15:00:00 23.5 15 Sudeste 27 Sudeste 0 1012.4 0.2 68
2019-05-28 14:00:00 24 14 Sudeste 28 Sudeste 0 1012.3 0.4 65
2019-05-28 13:00:00 23.4 12 Sudeste 21 Sudeste 0 1012.4 0.5 69
2019-05-28 12:00:00 22.9 10 Sudeste 19 Sudeste 0 1012.2 0.7 63
2019-05-28 11:00:00 22 14 Este 27 Este 0 1011.9 0.8 66
2019-05-28 10:00:00 22.2 16 Este 27 Este 0 1011.9 1.6 67
2019-05-28 09:00:00 19.8 15 Este 22 Este 0 1011.5 1.4 85
2019-05-28 08:00:00 15.7 8 Nordeste 9 Nordeste 0 1011.1 1.1 88
2019-05-28 07:00:00 15.2 6 Noroeste 8 Noroeste 0 1010.3 -0.1 87
2019-05-28 06:00:00 15.1 4 Norte 5 Norte 0 1010.1 -0.4 87
2019-05-28 05:00:00 15.7 4 Norte 6 Norte 0 1010 -1 85
2019-05-28 04:00:00 15.8 3 Noroeste 5 Noroeste 0 1010.4 -0.8 83
2019-05-28 03:00:00 16.7 3 Norte 8 Norte 0 1010.5 -0.7 84
2019-05-28 02:00:00 17 5 Norte 8 Noroeste 0 1011 0.1 82
2019-05-28 01:00:00 18.5 3 Sudoeste 17 Sudoeste 0 1011.2 0.4 82
2019-05-28 00:00:00 19.4 12 Sudoeste 17 Sudoeste 0 1011.2 0.5 82
2019-05-27 23:00:00 19.2 9 Oeste 15 Oeste 0 1010.9 0.4 79
2019-05-27 22:00:00 20 9 Oeste 20 Sudoeste 0 1010.8 0.1 74
2019-05-27 21:00:00 20.8 8 Oeste 21 Sudoeste 0 1010.7 -0.3 68
2019-05-27 20:00:00 22.4 10 Oeste 23 Oeste 0 1010.5 -1 62
2019-05-27 19:00:00 23.4 13 Oeste 24 Sudoeste 0 1010.7 -1.3 56
2019-05-27 18:00:00 23.3 13 Oeste 24 Oeste 0 1011 -1.8 53
2019-05-27 17:00:00 23.9 13 Oeste 26 Oeste 0 1011.5 -1.6 48
2019-05-27 16:00:00 23.4 14 Oeste 26 Sudoeste 0 1012 -1.6 55
2019-05-27 15:00:00 23.1 13 Oeste 26 Sudoeste 0 1012.8 -1 52
2019-05-27 14:00:00 22.8 12 Oeste 24 Sudoeste 0 1013.1 -0.7 56
2019-05-27 13:00:00 21.3 17 Sudoeste 23 Sudoeste 0 1013.6 -0.3 72
2019-05-27 12:00:00 20.5 9 Sur 18 Sur 0 1013.8 0.1 74
2019-05-27 11:00:00 20.3 9 Sur 14 Sudeste 0 1013.8 0.3 78
2019-05-27 10:00:00 19.2 6 Sudeste 12 Sudeste 0 1013.9 0.6 87
2019-05-27 09:00:00 18.2 0 Calma 7 Nordeste 0 1013.7 0.6 90
2019-05-27 08:00:00 16 3 Norte 8 Norte 0 1013.5 0.2 91
2019-05-27 07:00:00 14.4 5 Noroeste 8 Noroeste 0 1013.3 -0.4 90
2019-05-27 06:00:00 15.7 3 Nordeste 10 Norte 0 1013.1 -1.3 89
2019-05-27 05:00:00 15.7 4 Nordeste 8 Noroeste 0 1013.3 -1.4 88
2019-05-27 04:00:00 17.6 6 Oeste 20 Oeste 0 1013.7 -1.1 87
2019-05-27 03:00:00 16 5 Oeste 9 Oeste 0 1014.4 -0.9 86
2019-05-27 02:00:00 16.3 5 Noroeste 14 Oeste 0 1014.7 -0.4 85
2019-05-27 01:00:00 17.6 10 Oeste 14 Oeste 0 1014.8 0 84
2019-05-27 00:00:00 17.2 10 Noroeste 15 Oeste 0 1015.3 0.9 81
2019-05-26 23:00:00 18.8 6 Oeste 14 Oeste 0 1015.1 0.6 79
2019-05-26 22:00:00 19.4 4 Oeste 13 Oeste 0 1014.8 0 76
2019-05-26 21:00:00 20.4 8 Oeste 19 Sudoeste 0 1014.4 -0.9 71
2019-05-26 20:00:00 21.5 10 Oeste 22 Sudoeste 0 1014.5 -1.3 65
2019-05-26 19:00:00 21.9 14 Sudoeste 26 Sudoeste 0 1014.8 -1.5 66
2019-05-26 18:00:00 22.1 15 Sudoeste 26 Sudoeste 0 1015.3 -1.6 64
2019-05-26 17:00:00 23 13 Oeste 31 Oeste 0 1015.8 -1.5 62
2019-05-26 16:00:00 23.1 16 Oeste 29 Oeste 0 1016.3 -1.2 65
2019-05-26 15:00:00 22.2 14 Oeste 25 Sudoeste 0 1016.9 -0.5 69
2019-05-26 14:00:00 21.9 13 Oeste 27 Sudoeste 0 1017.3 -0.4 68
2019-05-26 13:00:00 21.9 15 Sudoeste 26 Oeste 0 1017.5 -0.1 65
2019-05-26 12:00:00 21.3 10 Oeste 19 Sudoeste 0 1017.4 0 67
2019-05-26 11:00:00 20 12 Sudoeste 18 Sudoeste 0 1017.7 0.3 76
2019-05-26 10:00:00 19.6 10 Sudoeste 16 Sudoeste 0 1017.6 0.5 77
2019-05-26 09:00:00 18 4 Oeste 9 Oeste 0 1017.4 0.2 89
2019-05-26 08:00:00 15 7 Noroeste 9 Noroeste 0 1017.4 -0.2 90
2019-05-26 07:00:00 14.5 5 Noroeste 9 Noroeste 0 1017.1 -0.7 89
2019-05-26 06:00:00 15.4 3 Noroeste 8 Noroeste 0 1017.2 -0.7 89
2019-05-26 05:00:00 15.1 9 Noroeste 10 Noroeste 0 1017.6 -0.5 88
2019-05-26 04:00:00 14.9 4 Noroeste 6 Oeste 0 1017.8 -0.6 87
2019-05-26 03:00:00 15.1 4 Sudoeste 6 Oeste 0 1017.9 -0.7 85
2019-05-26 02:00:00 16.2 8 Oeste 12 Oeste 0 1018.1 -0.1 84
2019-05-26 01:00:00 16.6 7 Oeste 9 Oeste 0 1018.4 0.8 81
2019-05-26 00:00:00 17.6 5 Sudoeste 8 Sudoeste 0 1018.6 1.6 79
2019-05-25 23:00:00 17.9 5 Oeste 8 Oeste 0 1018.2 1.4 74
2019-05-25 22:00:00 19 3 Oeste 8 Oeste 0 1017.6 1 73
2019-05-25 21:00:00 19.6 5 Sudoeste 15 Sur 0 1017 0.7 73
2019-05-25 20:00:00 19.8 10 Sudoeste 15 Sudoeste 0 1016.8 0.5 73
2019-05-25 19:00:00 20.6 10 Sudoeste 18 Sur 0 1016.6 0.1 69
2019-05-25 18:00:00 21.5 13 Sudoeste 20 Sudoeste 0 1016.3 -0.4 67
2019-05-25 17:00:00 21.7 13 Sur 20 Sudoeste 0 1016.3 -0.1 65
2019-05-25 16:00:00 21.5 12 Sudoeste 20 Sur 0 1016.5 0.1 67
2019-05-25 15:00:00 21.1 10 Sur 20 Sudoeste 0 1016.7 0.7 68
2019-05-25 14:00:00 21.4 13 Sur 24 Sudoeste 0 1016.4 0.8 63
2019-05-25 13:00:00 21.4 17 Sur 24 Sur 0 1016.4 1.1 60
2019-05-25 12:00:00 21.3 14 Sudoeste 21 Sur 0 1016 1.1 50
2019-05-25 11:00:00 20.5 10 Sur 16 Sudoeste 0 1015.6 1.3 51
2019-05-25 10:00:00 20.6 6 Sur 14 Este 0 1015.3 1.4 49
2019-05-25 09:00:00 20.8 7 Nordeste 12 Nordeste 0 1014.9 1.2 47
2019-05-25 08:00:00 17.8 8 Este 16 Sudeste 0 1014.3 0.7 66
2019-05-25 07:00:00 17.3 9 Este 24 Este 0 1013.9 0.3 63
2019-05-25 06:00:00 17.5 10 Este 29 Este 0 1013.7 0 60
2019-05-25 05:00:00 18.7 19 Este 39 Este 0 1013.6 0 59
2019-05-25 04:00:00 18.9 21 Este 39 Este 0 1013.6 0 61
2019-05-25 03:00:00 18.9 23 Este 40 Este 0 1013.7 0.8 56
2019-05-25 02:00:00 19.4 23 Este 45 Este 0 1013.6 1.5 54
2019-05-25 01:00:00 19.4 30 Este 50 Este 0 1013.6 2.5 61
2019-05-25 00:00:00 19.6 30 Este 56 Sudeste 0 1012.9 2.3 66